createdAt,value
2018-12-18T00:01:55.270Z,24.73
2018-12-18T00:06:59.041Z,22.43
2018-12-18T00:12:02.332Z,20.00
2018-12-18T00:17:05.558Z,20.93
2018-12-18T00:22:08.874Z,22.67
2018-12-18T00:27:12.208Z,18.03
2018-12-18T00:32:15.421Z,21.63
2018-12-18T00:37:18.638Z,26.13
2018-12-18T00:42:21.862Z,16.87
2018-12-18T00:47:25.074Z,19.33
2018-12-18T00:52:28.402Z,12.20
2018-12-18T00:57:31.625Z,16.07
2018-12-18T01:02:34.841Z,22.60
2018-12-18T01:07:38.045Z,17.07
2018-12-18T01:12:41.354Z,15.40
2018-12-18T01:17:44.596Z,20.37
2018-12-18T01:22:47.819Z,14.17
2018-12-18T01:27:51.035Z,16.63
2018-12-18T01:32:54.395Z,13.17
2018-12-18T01:37:56.691Z,18.93
2018-12-18T01:42:59.930Z,14.80
2018-12-18T01:48:03.162Z,12.57
2018-12-18T01:53:06.380Z,12.67
2018-12-18T01:58:09.626Z,14.63
2018-12-18T02:03:12.826Z,10.83
2018-12-18T02:08:16.036Z,12.53
2018-12-18T02:13:19.250Z,13.60
2018-12-18T02:18:22.470Z,11.97
2018-12-18T02:23:25.683Z,13.90
2018-12-18T02:28:28.985Z,11.47
2018-12-18T02:33:32.146Z,13.83
2018-12-18T02:38:35.390Z,13.97
2018-12-18T02:43:45.232Z,13.90
2018-12-18T02:48:48.463Z,13.60
2018-12-18T02:53:51.718Z,11.73
2018-12-18T02:58:54.998Z,13.67
2018-12-18T03:03:58.258Z,8.93
2018-12-18T03:09:01.482Z,11.90
2018-12-18T03:14:04.832Z,14.97
2018-12-18T03:19:08.098Z,7.47
2018-12-18T03:24:11.356Z,9.20
2018-12-18T03:29:14.826Z,11.53
2018-12-18T03:34:18.027Z,9.07
2018-12-18T03:39:21.182Z,13.57
2018-12-18T03:44:24.357Z,9.10
2018-12-18T03:49:27.619Z,9.67
2018-12-18T03:54:30.779Z,9.53
2018-12-18T03:59:33.962Z,11.77
2018-12-18T04:04:37.166Z,10.20
2018-12-18T04:09:40.520Z,20.47
2018-12-18T04:14:43.770Z,10.33
2018-12-18T04:19:47.031Z,9.70
2018-12-18T04:24:50.186Z,9.00
2018-12-18T04:29:53.412Z,7.93
2018-12-18T04:34:56.569Z,8.53
2018-12-18T04:39:59.774Z,13.67
2018-12-18T04:45:03.571Z,9.47
2018-12-18T04:50:07.086Z,14.53
2018-12-18T04:55:10.253Z,8.80
2018-12-18T05:00:13.419Z,7.20
2018-12-18T05:05:16.688Z,8.83
2018-12-18T05:10:19.911Z,7.30
2018-12-18T05:15:23.139Z,5.60
2018-12-18T05:20:26.362Z,10.83
2018-12-18T05:25:29.640Z,8.83
2018-12-18T05:30:32.815Z,8.07
2018-12-18T05:35:35.965Z,6.00
2018-12-18T05:40:39.258Z,9.27
2018-12-18T05:45:42.479Z,5.60
2018-12-18T05:50:45.763Z,7.33
2018-12-18T05:55:48.958Z,5.53
2018-12-18T06:00:52.114Z,7.57
2018-12-18T06:05:55.269Z,9.47
2018-12-18T06:10:58.423Z,6.67
2018-12-18T06:16:01.598Z,5.80
2018-12-18T06:21:04.766Z,8.23
2018-12-18T06:26:07.931Z,7.47
2018-12-18T06:31:11.977Z,10.47
2018-12-18T06:36:14.454Z,9.43
2018-12-18T06:41:17.627Z,9.53
2018-12-18T06:46:20.858Z,8.13
2018-12-18T06:51:24.030Z,7.50
2018-12-18T06:56:27.206Z,6.83
2018-12-18T07:01:30.361Z,12.47
2018-12-18T07:06:33.680Z,8.93
2018-12-18T07:11:36.930Z,6.93
2018-12-18T07:16:40.087Z,4.07
2018-12-18T07:21:43.273Z,10.87
2018-12-18T07:26:46.422Z,7.90
2018-12-18T07:31:49.578Z,5.97
2018-12-18T07:36:52.751Z,7.43
2018-12-18T07:41:55.918Z,10.77
2018-12-18T07:46:59.095Z,6.87
2018-12-18T07:52:02.265Z,5.03
2018-12-18T07:57:05.427Z,7.10
2018-12-18T08:02:08.635Z,5.27
2018-12-18T08:07:11.782Z,8.70
2018-12-18T08:12:14.953Z,7.10
2018-12-18T08:17:18.121Z,5.93
2018-12-18T08:22:21.359Z,9.23
2018-12-18T08:27:24.510Z,6.90
2018-12-18T08:32:27.750Z,7.80
2018-12-18T08:37:30.923Z,9.43
2018-12-18T08:42:34.150Z,3.97
2018-12-18T08:47:37.389Z,6.07
2018-12-18T08:52:40.543Z,3.77
2018-12-18T08:57:42.846Z,4.43
2018-12-18T09:02:46.019Z,7.07
2018-12-18T09:07:49.183Z,8.93
2018-12-18T09:12:52.371Z,8.63
2018-12-18T09:17:55.623Z,8.60
2018-12-18T09:22:58.821Z,3.00
2018-12-18T09:28:02.008Z,7.03
2018-12-18T09:33:05.223Z,4.10
2018-12-18T09:38:13.724Z,5.20
2018-12-18T09:43:22.451Z,8.20
2018-12-18T09:48:25.624Z,10.07
2018-12-18T09:53:28.886Z,7.17
2018-12-18T09:58:32.029Z,5.83
2018-12-18T10:03:35.192Z,5.83
2018-12-18T10:08:38.367Z,9.20
2018-12-18T10:13:41.534Z,10.20
2018-12-18T10:18:44.714Z,5.63
2018-12-18T10:23:47.971Z,9.17
2018-12-18T10:28:51.187Z,6.00
2018-12-18T10:33:54.375Z,5.77
2018-12-18T10:38:57.565Z,12.93
2018-12-18T10:44:00.743Z,4.30
2018-12-18T10:49:04.062Z,4.90
2018-12-18T10:54:07.227Z,6.97
2018-12-18T10:59:10.411Z,3.57
2018-12-18T11:04:13.667Z,5.10
2018-12-18T11:09:17.394Z,7.03
2018-12-18T11:14:20.563Z,8.87
2018-12-18T11:19:23.747Z,5.60
2018-12-18T11:24:27.077Z,4.13
2018-12-18T11:29:30.267Z,9.20
2018-12-18T11:34:33.454Z,4.43
2018-12-18T11:39:36.614Z,4.47
2018-12-18T11:44:39.778Z,9.40
2018-12-18T11:49:42.942Z,3.10
2018-12-18T11:54:46.302Z,12.47
2018-12-18T11:59:49.485Z,15.40
2018-12-18T12:04:52.838Z,5.93
2018-12-18T12:09:56.033Z,4.13
2018-12-18T12:14:59.295Z,3.20
2018-12-18T12:20:02.547Z,9.03
2018-12-18T12:25:06.562Z,6.53
2018-12-18T12:30:09.955Z,6.20
2018-12-18T12:35:13.403Z,2.40
2018-12-18T12:40:16.566Z,2.77
2018-12-18T12:45:20.052Z,5.43
2018-12-18T12:50:23.327Z,2.40
2018-12-18T12:55:26.491Z,5.80
2018-12-18T13:00:29.743Z,5.63
2018-12-18T13:05:32.971Z,2.47
2018-12-18T13:10:36.190Z,5.63
2018-12-18T13:15:39.365Z,3.47
2018-12-18T13:20:42.563Z,10.93
2018-12-18T13:25:45.747Z,6.40
2018-12-18T13:30:48.950Z,4.30
2018-12-18T13:35:52.223Z,7.23
2018-12-18T13:40:55.398Z,3.00
2018-12-18T13:45:59.539Z,2.53
2018-12-18T13:51:02.811Z,6.40
2018-12-18T13:56:06.056Z,8.93
2018-12-18T14:01:09.299Z,5.73
2018-12-18T14:06:12.582Z,8.33
2018-12-18T14:11:15.746Z,7.30
2018-12-18T14:16:18.935Z,6.83
2018-12-18T14:21:23.152Z,9.40
2018-12-18T14:26:26.428Z,5.77
2018-12-18T14:31:29.736Z,2.90
2018-12-18T14:36:33.004Z,6.57
2018-12-18T14:41:36.162Z,5.80
2018-12-18T14:46:39.406Z,2.57
2018-12-18T14:51:42.608Z,4.20
2018-12-18T14:56:45.787Z,17.33
2018-12-18T15:01:48.975Z,11.73
2018-12-18T15:06:52.478Z,7.83
2018-12-18T15:11:55.714Z,8.73
2018-12-18T15:16:58.946Z,8.43
2018-12-18T15:22:02.217Z,5.53
2018-12-18T15:27:05.535Z,6.43
2018-12-18T15:32:08.714Z,12.00
2018-12-18T15:37:11.890Z,5.77
2018-12-18T15:42:16.111Z,8.63
2018-12-18T15:47:19.298Z,11.63
2018-12-18T15:52:23.465Z,9.30
2018-12-18T15:57:26.634Z,5.17
2018-12-18T16:02:29.919Z,6.07
2018-12-18T16:07:33.699Z,6.60
2018-12-18T16:12:36.950Z,6.83
2018-12-18T16:17:40.149Z,6.70
2018-12-18T16:22:43.330Z,9.83
2018-12-18T16:27:46.504Z,6.80
2018-12-18T16:32:49.690Z,6.73
2018-12-18T16:37:52.946Z,9.03
2018-12-18T16:42:56.126Z,7.07
2018-12-18T16:47:59.316Z,7.03
2018-12-18T16:53:03.438Z,6.57
2018-12-18T16:58:06.663Z,24.10
2018-12-18T17:03:09.947Z,7.53
2018-12-18T17:08:13.523Z,7.43
2018-12-18T17:13:16.755Z,7.63
2018-12-18T17:18:19.997Z,7.53
2018-12-18T17:23:23.246Z,5.10
2018-12-18T17:28:26.491Z,10.97
2018-12-18T17:33:29.808Z,8.40
2018-12-18T17:38:32.967Z,9.73
2018-12-18T17:43:39.627Z,4.93
2018-12-18T17:48:42.812Z,9.00
2018-12-18T17:53:45.999Z,8.33
2018-12-18T17:58:49.169Z,7.53
2018-12-18T18:03:52.337Z,7.10
2018-12-18T18:08:55.516Z,5.37
2018-12-18T18:13:58.678Z,6.47
2018-12-18T18:19:01.858Z,6.13
2018-12-18T18:24:05.134Z,8.23
2018-12-18T18:29:08.292Z,9.10
2018-12-18T18:34:12.573Z,12.83
2018-12-18T18:39:15.926Z,7.10
2018-12-18T18:44:19.094Z,6.33
2018-12-18T18:49:22.273Z,7.10
2018-12-18T18:54:25.419Z,7.87
2018-12-18T18:59:28.582Z,6.20
2018-12-18T19:04:31.810Z,4.97
2018-12-18T19:09:34.963Z,5.97
2018-12-18T19:14:38.139Z,5.57
2018-12-18T19:19:41.298Z,5.40
2018-12-18T19:24:44.490Z,4.13
2018-12-18T19:29:47.678Z,5.10
2018-12-18T19:34:52.402Z,6.97
2018-12-18T19:39:55.759Z,4.37
2018-12-18T19:44:58.947Z,5.30
2018-12-18T19:50:02.238Z,4.27
2018-12-18T19:55:05.578Z,3.40
2018-12-18T20:00:09.483Z,5.53
2018-12-18T20:05:12.762Z,4.70
2018-12-18T20:10:15.926Z,4.20
2018-12-18T20:15:19.193Z,4.50
2018-12-18T20:20:22.518Z,3.30
2018-12-18T20:25:25.673Z,2.47
2018-12-18T20:30:28.852Z,4.57
2018-12-18T20:35:32.024Z,5.07
2018-12-18T20:40:35.174Z,2.33
2018-12-18T20:45:38.962Z,5.00
2018-12-18T20:50:42.126Z,3.70
2018-12-18T20:55:45.294Z,10.33
2018-12-18T21:00:48.527Z,3.30
2018-12-18T21:05:51.890Z,2.63
2018-12-18T21:10:55.210Z,3.57
2018-12-18T21:15:58.773Z,2.10
2018-12-18T21:21:02.118Z,2.20
2018-12-18T21:26:05.544Z,3.10
2018-12-18T21:31:08.929Z,3.20
2018-12-18T21:36:12.246Z,5.23
2018-12-18T21:41:15.594Z,2.40
2018-12-18T21:46:19.064Z,2.40
2018-12-18T21:51:22.394Z,1.83
2018-12-18T21:56:25.752Z,2.90
2018-12-18T22:01:29.085Z,2.20
2018-12-18T22:06:32.549Z,1.83
2018-12-18T22:11:35.874Z,2.33
2018-12-18T22:16:39.386Z,3.37
2018-12-18T22:21:42.726Z,2.20
2018-12-18T22:26:45.910Z,2.47
2018-12-18T22:31:49.093Z,1.77
2018-12-18T22:36:52.278Z,3.60
2018-12-18T22:41:55.438Z,2.00
2018-12-18T22:46:58.670Z,1.93
2018-12-18T22:52:01.835Z,1.90
2018-12-18T22:57:05.122Z,1.93
2018-12-18T23:02:13.635Z,1.47
2018-12-18T23:07:16.816Z,2.03
2018-12-18T23:12:19.996Z,2.60
2018-12-18T23:17:23.160Z,1.70
2018-12-18T23:22:26.338Z,1.50
2018-12-18T23:27:29.502Z,2.47
2018-12-18T23:32:32.666Z,4.70
2018-12-18T23:37:35.826Z,4.37
2018-12-18T23:42:38.983Z,2.77
2018-12-18T23:47:42.186Z,2.70
2018-12-18T23:52:45.412Z,2.23
2018-12-18T23:57:49.614Z,3.73
